KBHM/BHM METAR and TAF weather

Enter ICAO airport designator
Station Type Date Time Source
KBHM METAR 2019/08/24 08:53 UTC NOAA

KBHM 240853Z 00000KT 10SM CLR 23/22 A3004 RMK AO2 SLP164 T02280217 56003


Station Type Date Time Source
KBHM Decoded METAR 2019/08/24 08:53 UTC NOAA

Station name not available
Aug 24, 2019 - 04:53 AM EDT / 2019.08.24 0853 UTC
Wind: Calm:0
Visibility: 10 mile(s):0
Sky conditions: clear
Temperature: 73.0 F (22.8 C)
Dew Point: 71.1 F (21.7 C)
Relative Humidity: 93%
Pressure (altimeter): 30.04 in. Hg (1017 hPa)
Pressure tendency: 0.01 inches (0.3 hPa) lower than three hours ago
ob: KBHM 240853Z 00000KT 10SM CLR 23/22 A3004 RMK AO2 SLP164 T02280217 56003
cycle: 9

Station Type Date Time Source
KBHM TAF 2019/08/24 06:22 UTC NOAA

TAF KBHM 240520Z 2406/2506 VRB03KT P6SM SCT250
FM241000 00000KT 5SM BR SCT002 SCT015
FM241400 VRB03KT P6SM SCT050 SCT150 PROB30 2415/2419 6SM TSRA BKN050CB
FM241900 25005KT P6SM VCTS BKN050CB
FM250000 05003KT P6SM OVC050

Example: see airport list